Airfield :
LOGIN :

Register | Disclaimer

   EN    FR    IT 

 










Legend :    VFR   Marginal VFR   IFR   Intensive IFR   Very Intensive IFR
Visi :
Ceiling :
>= 8 km
>= 3000ft
5 to 8 km
1000 to 3000 ft
1500m to 5 km
500 to 1000 ft
800 to 1500m
200 to 500 ft
< 800m
< 200 ft
Symbols :   Thunderstorms  Fog  Heavy snow  Heavy precipitations  Wind > 20 kt
SIGMETs :     Misc.  Thunderstorms  Icing  Turbulence  Mountain Waves  Volcanic Ashes






- Airport Elevation : 8 ft
- IATA code : JCU


GECE - Ceuta Heliport

CURRENT METAR :
  • 251930Z AUTO 09008KT 040V150 CAVOK 20/17 Q1019

EXPIRED METARs :
  • 251900Z AUTO 09009KT 060V140 CAVOK 21/16 Q1018
  • 251830Z AUTO 10009KT 060V140 CAVOK 21/15 Q1018
  • 251800Z AUTO VRB07KT CAVOK 21/13 Q1018
  • 251730Z AUTO 36005KT 320V040 CAVOK 19/16 Q1017
  • 251700Z AUTO 01004KT 330V060 CAVOK 20/15 Q1017

TAF TAF GECE
Valid from the 25 at 15:00 until the 26 at 15:00 UTC


251400Z 2515/2615 34008KT 9999 FEW020 TX21/2515Z TN18/2604Z
BECMG 2523/2601 08011KT
PROB40
TEMPO 2522/2608 BKN014



MET'MAP, your aeronautical weather chart ! - Copyright ORBIFLY December 2007 - Disclaimer

ORBIFLY MET'MAP TEAM :

Programming & Development : Alexandra Zaïnal
Original concept : Baudouin d'Aumeries
Technical & hardware support : Manuel Goepfert
Assistance : Marc-Olivier Méhu

Contact : metmap@orbifly.com




SOURCES & CREDITS :

   NOAA